createdAt,value
2022-11-10T00:00:45.092Z,14.82
2022-11-10T00:02:10.559Z,14.82
2022-11-10T00:03:32.584Z,14.80
2022-11-10T00:04:53.548Z,14.77
2022-11-10T00:07:51.862Z,14.71
2022-11-10T00:09:15.858Z,14.68
2022-11-10T00:11:03.539Z,14.64
2022-11-10T00:12:24.120Z,14.64
2022-11-10T00:14:08.128Z,14.66
2022-11-10T00:15:50.753Z,14.65
2022-11-10T00:17:14.003Z,14.65
2022-11-10T00:18:37.758Z,14.63
2022-11-10T00:21:40.824Z,14.52
2022-11-10T00:23:04.895Z,14.43
2022-11-10T00:24:27.270Z,14.40
2022-11-10T00:25:56.091Z,14.40
2022-11-10T00:27:17.942Z,14.38
2022-11-10T00:28:40.614Z,14.38
2022-11-10T00:30:02.866Z,14.41
2022-11-10T00:31:26.703Z,14.43
2022-11-10T00:32:50.236Z,14.42
2022-11-10T00:34:17.903Z,14.42
2022-11-10T00:35:49.170Z,14.42
2022-11-10T00:37:11.289Z,14.42
2022-11-10T00:38:45.349Z,14.41
2022-11-10T00:40:07.584Z,14.41
2022-11-10T00:41:30.064Z,14.38
2022-11-10T00:42:54.506Z,14.37
2022-11-10T00:45:53.538Z,14.35
2022-11-10T00:47:14.836Z,14.33
2022-11-10T00:48:35.570Z,14.31
2022-11-10T00:49:56.951Z,14.31
2022-11-10T00:51:26.745Z,14.29
2022-11-10T00:52:50.072Z,14.28
2022-11-10T00:54:12.495Z,14.27
2022-11-10T00:55:42.765Z,14.27
2022-11-10T00:57:14.383Z,14.26
2022-11-10T00:58:50.488Z,14.25
2022-11-10T01:00:16.232Z,14.20
2022-11-10T01:01:41.234Z,14.22
2022-11-10T01:03:03.263Z,14.22
2022-11-10T01:04:29.414Z,14.21
2022-11-10T01:05:51.231Z,14.14
2022-11-10T01:07:13.207Z,14.15
2022-11-10T01:08:38.860Z,14.17
2022-11-10T01:10:02.445Z,14.13
2022-11-10T01:11:29.537Z,14.04
2022-11-10T01:12:53.268Z,13.98
2022-11-10T01:14:16.741Z,13.94
2022-11-10T01:15:41.785Z,13.87
2022-11-10T01:17:04.099Z,13.83
2022-11-10T01:18:30.939Z,13.81
2022-11-10T01:19:55.116Z,13.82
2022-11-10T01:21:17.041Z,13.81
2022-11-10T01:22:41.108Z,13.84
2022-11-10T01:27:14.345Z,13.88
2022-11-10T01:28:42.055Z,13.90
2022-11-10T01:30:11.078Z,13.90
2022-11-10T01:31:32.677Z,13.90
2022-11-10T01:32:56.269Z,13.86
2022-11-10T01:34:19.845Z,13.86
2022-11-10T01:35:47.875Z,13.83
2022-11-10T01:38:49.957Z,13.77
2022-11-10T01:40:17.721Z,13.78
2022-11-10T01:42:07.709Z,13.76
2022-11-10T01:43:28.694Z,13.74
2022-11-10T01:45:12.116Z,13.69
2022-11-10T01:46:35.177Z,13.68
2022-11-10T01:47:59.566Z,13.65
2022-11-10T01:51:09.275Z,13.64
2022-11-10T01:52:44.926Z,13.57
2022-11-10T01:54:16.148Z,13.47
2022-11-10T01:55:41.390Z,13.39
2022-11-10T01:57:08.289Z,13.42
2022-11-10T01:58:32.176Z,13.44
2022-11-10T02:00:06.504Z,13.47
2022-11-10T02:01:29.718Z,13.54
2022-11-10T02:03:08.422Z,13.58
2022-11-10T02:04:35.681Z,13.61
2022-11-10T02:06:00.916Z,13.65
2022-11-10T02:09:03.396Z,13.68
2022-11-10T02:10:30.119Z,13.69
2022-11-10T02:11:54.617Z,13.66
2022-11-10T02:13:16.157Z,13.68
2022-11-10T02:14:44.221Z,13.68
2022-11-10T02:16:12.158Z,13.64
2022-11-10T02:17:38.146Z,13.65
2022-11-10T02:19:12.008Z,13.63
2022-11-10T02:20:33.717Z,13.64
2022-11-10T02:21:58.888Z,13.64
2022-11-10T02:26:50.156Z,13.61
2022-11-10T02:28:22.146Z,13.59
2022-11-10T02:30:02.565Z,13.62
2022-11-10T02:31:23.453Z,13.60
2022-11-10T02:32:46.391Z,13.62
2022-11-10T02:34:06.947Z,13.62
2022-11-10T02:35:32.492Z,13.64
2022-11-10T02:36:56.341Z,13.63
2022-11-10T02:38:19.179Z,13.62
2022-11-10T02:39:40.236Z,13.62
2022-11-10T02:41:08.369Z,13.62
2022-11-10T02:44:06.117Z,13.61
2022-11-10T02:45:33.302Z,13.59
2022-11-10T02:47:00.498Z,13.58
2022-11-10T02:48:31.710Z,13.59
2022-11-10T02:49:54.178Z,13.57
2022-11-10T02:51:15.906Z,13.57
2022-11-10T02:52:41.214Z,13.56
2022-11-10T02:54:06.396Z,13.55
2022-11-10T02:55:30.794Z,13.53
2022-11-10T02:56:54.774Z,13.52
2022-11-10T02:58:15.667Z,13.50
2022-11-10T02:59:42.618Z,13.49
2022-11-10T03:01:21.947Z,13.47
2022-11-10T03:04:21.119Z,13.29
2022-11-10T03:07:33.599Z,13.25
2022-11-10T03:10:51.145Z,13.25
2022-11-10T03:12:12.202Z,13.27
2022-11-10T03:13:59.052Z,13.27
2022-11-10T03:15:27.157Z,13.25
2022-11-10T03:16:49.918Z,13.21
2022-11-10T03:18:12.276Z,13.21
2022-11-10T03:19:34.148Z,13.23
2022-11-10T03:20:56.063Z,13.22
2022-11-10T03:22:18.978Z,13.15
2022-11-10T03:27:12.546Z,12.94
2022-11-10T03:35:29.279Z,13.03
2022-11-10T03:38:32.306Z,13.07
2022-11-10T03:40:03.894Z,13.09
2022-11-10T03:43:02.967Z,13.10
2022-11-10T03:48:01.814Z,13.11
2022-11-10T03:51:51.637Z,13.09
2022-11-10T03:53:22.985Z,13.00
2022-11-10T03:56:30.200Z,12.93
2022-11-10T04:05:14.964Z,12.73
2022-11-10T04:07:03.216Z,12.70
2022-11-10T04:08:42.426Z,12.70
2022-11-10T04:12:03.626Z,12.76
2022-11-10T04:13:42.579Z,12.81
2022-11-10T04:20:11.149Z,12.88
2022-11-10T04:21:37.882Z,12.90
2022-11-10T04:23:16.495Z,12.90
2022-11-10T04:24:46.012Z,12.89
2022-11-10T04:26:31.665Z,12.87
2022-11-10T04:27:52.805Z,12.87
2022-11-10T04:29:15.271Z,12.83
2022-11-10T04:30:36.534Z,12.84
2022-11-10T04:32:04.316Z,12.83
2022-11-10T04:33:29.246Z,12.83
2022-11-10T04:34:54.382Z,12.83
2022-11-10T04:36:17.137Z,12.82
2022-11-10T04:37:42.165Z,12.79
2022-11-10T04:42:12.458Z,12.70
2022-11-10T04:43:34.060Z,12.72
2022-11-10T04:44:54.962Z,12.73
2022-11-10T04:46:26.850Z,12.73
2022-11-10T04:47:47.922Z,12.71
2022-11-10T04:49:08.408Z,12.70
2022-11-10T04:50:30.673Z,12.66
2022-11-10T04:51:51.721Z,12.70
2022-11-10T04:53:20.812Z,12.70
2022-11-10T04:54:44.183Z,12.71
2022-11-10T04:57:38.963Z,12.71
2022-11-10T04:59:02.721Z,12.68
2022-11-10T05:00:26.631Z,12.66
2022-11-10T05:01:50.981Z,12.65
2022-11-10T05:06:24.636Z,12.43
2022-11-10T05:09:26.663Z,12.49
2022-11-10T05:10:48.756Z,12.53
2022-11-10T05:13:50.187Z,12.58
2022-11-10T05:15:11.141Z,12.59
2022-11-10T05:16:31.552Z,12.61
2022-11-10T05:17:52.926Z,12.61
2022-11-10T05:19:14.888Z,12.60
2022-11-10T05:20:37.075Z,12.58
2022-11-10T05:22:01.583Z,12.56
2022-11-10T05:23:41.700Z,12.54
2022-11-10T05:25:02.978Z,12.50
2022-11-10T05:26:26.461Z,12.47
2022-11-10T05:27:47.056Z,12.48
2022-11-10T05:29:13.806Z,12.53
2022-11-10T05:33:53.057Z,12.61
2022-11-10T05:35:14.783Z,12.62
2022-11-10T05:36:38.438Z,12.61
2022-11-10T05:38:01.646Z,12.61
2022-11-10T05:39:25.100Z,12.66
2022-11-10T05:40:49.752Z,12.69
2022-11-10T05:43:46.363Z,12.76
2022-11-10T05:45:10.889Z,12.79
2022-11-10T05:48:18.524Z,12.83
2022-11-10T05:49:43.951Z,12.85
2022-11-10T05:51:07.278Z,12.87
2022-11-10T05:52:31.761Z,12.87
2022-11-10T05:53:55.876Z,12.88
2022-11-10T06:00:24.472Z,12.89
2022-11-10T06:03:27.961Z,12.88
2022-11-10T06:06:29.955Z,12.88
2022-11-10T06:07:52.950Z,12.86
2022-11-10T06:09:13.550Z,12.86
2022-11-10T06:10:35.915Z,12.82
2022-11-10T06:12:14.527Z,12.81
2022-11-10T06:13:37.060Z,12.82
2022-11-10T06:15:02.390Z,12.81
2022-11-10T06:19:45.799Z,12.78
2022-11-10T06:21:08.539Z,12.77
2022-11-10T06:22:30.409Z,12.74
2022-11-10T06:25:47.020Z,12.71
2022-11-10T06:27:09.901Z,12.68
2022-11-10T06:28:30.421Z,12.66
2022-11-10T06:29:50.504Z,12.65
2022-11-10T06:31:13.682Z,12.64
2022-11-10T11:15:59.234Z,23.97
2022-11-10T11:35:19.139Z,23.05
2022-11-10T11:36:48.900Z,23.08
2022-11-10T13:08:34.169Z,22.72
2022-11-10T14:35:21.602Z,21.73
2022-11-10T15:13:27.607Z,20.89
2022-11-10T15:14:48.253Z,20.85
2022-11-10T15:53:45.706Z,19.38
2022-11-10T15:58:35.167Z,19.21
2022-11-10T16:34:08.900Z,18.16
2022-11-10T16:35:29.318Z,18.13
2022-11-10T16:36:51.115Z,18.10
2022-11-10T16:38:21.681Z,18.07
2022-11-10T16:39:42.064Z,18.00
2022-11-10T16:41:02.975Z,17.92
2022-11-10T16:42:27.421Z,17.87
2022-11-10T16:43:49.347Z,17.77
2022-11-10T16:45:22.660Z,17.73
2022-11-10T16:46:42.978Z,17.71
2022-11-10T16:48:03.177Z,17.62
2022-11-10T16:49:33.149Z,17.60
2022-11-10T16:50:56.301Z,17.53
2022-11-10T16:52:17.516Z,17.49
2022-11-10T16:53:38.640Z,17.42
2022-11-10T16:54:59.489Z,17.36
2022-11-10T16:56:21.644Z,17.35
2022-11-10T16:57:42.016Z,17.33
2022-11-10T16:59:03.389Z,17.32
2022-11-10T17:00:24.314Z,17.32
2022-11-10T17:01:44.827Z,17.28
2022-11-10T17:03:08.195Z,17.27
2022-11-10T17:04:29.653Z,17.26
2022-11-10T17:05:50.468Z,17.25
2022-11-10T17:07:13.696Z,17.18
2022-11-10T17:08:34.924Z,17.18
2022-11-10T17:09:58.488Z,17.18
2022-11-10T17:11:19.812Z,17.11
2022-11-10T17:12:40.948Z,17.11
2022-11-10T17:14:01.991Z,17.08
2022-11-10T17:15:23.338Z,17.06
2022-11-10T17:16:48.208Z,17.05
2022-11-10T17:18:10.501Z,16.99
2022-11-10T17:19:30.971Z,16.98
2022-11-10T17:20:51.767Z,16.96
2022-11-10T17:22:13.286Z,16.93
2022-11-10T17:23:33.947Z,16.86
2022-11-10T17:24:55.408Z,16.81
2022-11-10T17:26:16.348Z,16.76
2022-11-10T17:27:38.063Z,16.73
2022-11-10T17:28:58.813Z,16.72
2022-11-10T17:30:21.432Z,16.71
2022-11-10T17:31:42.421Z,16.71
2022-11-10T17:33:05.397Z,16.68
2022-11-10T17:34:31.591Z,16.67
2022-11-10T17:35:52.613Z,16.65
2022-11-10T17:37:14.952Z,16.56
2022-11-10T17:38:57.125Z,16.55
2022-11-10T17:40:18.942Z,16.52
2022-11-10T17:41:39.784Z,16.48
2022-11-10T17:43:00.344Z,16.46
2022-11-10T17:44:21.160Z,16.44
2022-11-10T17:45:42.020Z,16.32
2022-11-10T17:47:02.613Z,16.32
2022-11-10T17:48:25.512Z,16.29
2022-11-10T17:49:46.167Z,16.27
2022-11-10T17:51:09.252Z,16.22
2022-11-10T17:52:31.496Z,16.13
2022-11-10T17:53:54.457Z,16.12
2022-11-10T17:55:16.700Z,16.08
2022-11-10T17:56:37.595Z,16.04
2022-11-10T17:57:58.693Z,16.03
2022-11-10T17:59:18.970Z,15.99
2022-11-10T18:00:39.704Z,15.99
2022-11-10T18:02:01.789Z,15.98
2022-11-10T18:03:22.611Z,15.97
2022-11-10T18:04:45.938Z,15.97
2022-11-10T18:06:06.730Z,15.94
2022-11-10T18:07:27.112Z,15.91
2022-11-10T18:08:47.871Z,15.85
2022-11-10T18:10:13.113Z,15.82
2022-11-10T18:11:36.438Z,15.81
2022-11-10T18:12:59.873Z,15.79
2022-11-10T18:14:20.288Z,15.74
2022-11-10T18:15:47.269Z,15.70
2022-11-10T18:17:07.745Z,15.68
2022-11-10T18:18:30.998Z,15.64
2022-11-10T18:19:55.723Z,15.56
2022-11-10T18:21:18.523Z,15.52
2022-11-10T18:22:41.311Z,15.53
2022-11-10T18:24:04.903Z,15.48
2022-11-10T18:25:25.306Z,15.49
2022-11-10T18:26:47.848Z,15.47
2022-11-10T18:28:08.989Z,15.48
2022-11-10T18:29:31.779Z,15.46
2022-11-10T18:30:52.471Z,15.46
2022-11-10T18:32:15.890Z,15.46
2022-11-10T18:33:37.286Z,15.45
2022-11-10T18:35:00.309Z,15.46
2022-11-10T18:36:22.834Z,15.45
2022-11-10T18:37:43.723Z,15.40
2022-11-10T18:39:04.539Z,15.37
2022-11-10T18:40:25.217Z,15.34
2022-11-10T18:41:56.259Z,15.31
2022-11-10T18:43:19.979Z,15.23
2022-11-10T18:44:41.532Z,15.24
2022-11-10T18:46:04.025Z,15.22
2022-11-10T18:47:24.443Z,15.17
2022-11-10T18:48:51.103Z,15.13
2022-11-10T18:50:11.486Z,15.16
2022-11-10T18:51:32.455Z,15.16
2022-11-10T18:52:54.998Z,15.12
2022-11-10T18:54:16.713Z,15.08
2022-11-10T18:55:41.743Z,15.05
2022-11-10T18:57:07.380Z,14.99
2022-11-10T18:58:28.154Z,14.98
2022-11-10T18:59:49.642Z,14.95
2022-11-10T19:01:11.044Z,14.97
2022-11-10T19:02:31.506Z,14.97
2022-11-10T19:03:51.745Z,15.00
2022-11-10T19:05:13.821Z,14.99
2022-11-10T19:06:39.756Z,14.97
2022-11-10T19:08:00.112Z,14.91
2022-11-10T19:09:20.333Z,14.90
2022-11-10T19:10:43.682Z,14.88
2022-11-10T19:12:04.516Z,14.80
2022-11-10T19:13:26.651Z,14.82
2022-11-10T19:14:47.613Z,14.82
2022-11-10T19:16:12.150Z,14.83
2022-11-10T19:17:34.165Z,14.84
2022-11-10T19:18:55.008Z,14.85
2022-11-10T19:20:20.424Z,14.85
2022-11-10T19:21:40.946Z,14.87
2022-11-10T19:23:01.062Z,14.86
2022-11-10T19:24:27.724Z,14.87
2022-11-10T19:25:48.599Z,14.86
2022-11-10T19:27:09.923Z,14.84
2022-11-10T19:28:30.579Z,14.78
2022-11-10T19:29:53.438Z,14.72
2022-11-10T19:31:15.749Z,14.70
2022-11-10T19:32:35.984Z,14.71
2022-11-10T19:33:56.590Z,14.72
2022-11-10T19:35:23.298Z,14.73
2022-11-10T19:36:43.929Z,14.72
2022-11-10T19:38:05.209Z,14.73
2022-11-10T19:39:27.072Z,14.73
2022-11-10T19:40:47.922Z,14.72
2022-11-10T19:42:08.747Z,14.73
2022-11-10T19:43:33.379Z,14.74
2022-11-10T19:44:55.118Z,14.73
2022-11-10T19:46:20.407Z,14.73
2022-11-10T19:47:41.827Z,14.70
2022-11-10T19:49:03.585Z,14.68
2022-11-10T19:50:25.910Z,14.66
2022-11-10T19:53:20.438Z,14.65
2022-11-10T19:54:41.150Z,14.64
2022-11-10T19:57:41.133Z,14.61
2022-11-10T19:59:01.885Z,14.60
2022-11-10T20:00:27.079Z,14.57
2022-11-10T20:01:52.005Z,14.56
2022-11-10T20:03:16.220Z,14.52
2022-11-10T20:06:34.621Z,14.50
2022-11-10T20:08:16.256Z,14.49
2022-11-10T20:09:40.213Z,14.35
2022-11-10T20:11:03.021Z,14.45
2022-11-10T20:12:24.058Z,14.41
2022-11-10T20:13:53.302Z,14.38
2022-11-10T20:15:17.106Z,14.36
2022-11-10T20:16:41.024Z,14.33
2022-11-10T20:18:01.911Z,14.32
2022-11-10T20:19:22.728Z,14.31
2022-11-10T20:20:43.076Z,14.29
2022-11-10T20:22:03.379Z,14.26
2022-11-10T20:23:24.348Z,14.25
2022-11-10T20:24:50.831Z,14.23
2022-11-10T20:26:13.141Z,14.12
2022-11-10T20:29:13.079Z,14.02
2022-11-10T20:30:35.001Z,13.99
2022-11-10T20:31:56.311Z,14.00
2022-11-10T20:33:18.182Z,13.98
2022-11-10T20:34:42.817Z,13.96
2022-11-10T20:36:09.067Z,13.96
2022-11-10T20:37:32.210Z,13.97
2022-11-10T20:38:55.834Z,13.95
2022-11-10T20:40:42.906Z,13.95
2022-11-10T20:42:00.828Z,13.93
2022-11-10T20:43:24.488Z,13.93
2022-11-10T20:44:45.882Z,13.92
2022-11-10T20:46:07.738Z,13.92
2022-11-10T20:47:31.615Z,13.91
2022-11-10T20:48:58.011Z,13.90
2022-11-10T20:50:24.146Z,13.90
2022-11-10T20:51:44.787Z,13.88
2022-11-10T20:53:06.468Z,13.87
2022-11-10T20:54:27.459Z,13.86
2022-11-10T20:55:53.979Z,13.86
2022-11-10T20:57:18.387Z,13.83
2022-11-10T20:58:39.406Z,13.83
2022-11-10T21:00:04.401Z,13.82
2022-11-10T21:01:25.966Z,13.81
2022-11-10T21:02:47.663Z,13.80
2022-11-10T21:04:17.354Z,13.79
2022-11-10T21:05:39.722Z,13.78
2022-11-10T21:07:00.297Z,13.76
2022-11-10T21:08:23.283Z,13.75
2022-11-10T21:09:43.725Z,13.72
2022-11-10T21:11:08.304Z,13.69
2022-11-10T21:12:47.410Z,13.69
2022-11-10T21:14:09.318Z,13.68
2022-11-10T21:15:29.313Z,13.68
2022-11-10T21:16:57.783Z,13.67
2022-11-10T21:18:19.194Z,13.66
2022-11-10T21:19:40.123Z,13.64
2022-11-10T21:21:04.324Z,13.62
2022-11-10T21:22:24.375Z,13.59
2022-11-10T21:23:47.117Z,13.57
2022-11-10T21:25:09.107Z,13.52
2022-11-10T21:26:39.041Z,13.50
2022-11-10T21:28:00.301Z,13.49
2022-11-10T21:29:24.108Z,13.45
2022-11-10T21:30:47.586Z,13.42
2022-11-10T21:32:10.613Z,13.41
2022-11-10T21:33:34.503Z,13.37
2022-11-10T21:35:03.252Z,13.35
2022-11-10T21:36:29.385Z,13.34
2022-11-10T21:37:50.798Z,13.32
2022-11-10T21:39:11.126Z,13.32
2022-11-10T21:40:34.941Z,13.31
2022-11-10T21:41:55.605Z,13.30
2022-11-10T21:43:19.875Z,13.30
2022-11-10T21:44:46.228Z,13.29
2022-11-10T21:46:07.223Z,13.27
2022-11-10T21:47:27.882Z,13.25
2022-11-10T21:48:48.883Z,13.23
2022-11-10T21:50:10.821Z,13.21
2022-11-10T21:51:31.315Z,13.19
2022-11-10T21:52:51.788Z,13.18
2022-11-10T21:54:12.593Z,13.17
2022-11-10T21:55:33.388Z,13.16
2022-11-10T21:58:35.283Z,13.15
2022-11-10T21:59:57.687Z,13.13
2022-11-10T22:01:24.968Z,13.12
2022-11-10T22:02:49.373Z,13.10
2022-11-10T22:04:15.615Z,13.09
2022-11-10T22:05:37.212Z,13.08
2022-11-10T22:07:23.984Z,13.06
2022-11-10T22:08:44.787Z,13.03
2022-11-10T22:10:23.310Z,13.02
2022-11-10T22:12:01.727Z,13.00
2022-11-10T22:13:40.494Z,12.97
2022-11-10T22:15:19.063Z,12.94
2022-11-10T22:17:00.596Z,12.93
2022-11-10T22:18:39.697Z,12.90
2022-11-10T22:19:59.751Z,12.87
2022-11-10T22:21:19.765Z,12.84
2022-11-10T22:22:39.551Z,12.83
2022-11-10T22:24:18.051Z,12.82
2022-11-10T22:25:37.995Z,12.80
2022-11-10T22:27:01.367Z,12.78
2022-11-10T22:28:21.063Z,12.78
2022-11-10T22:29:41.017Z,12.76
2022-11-10T22:31:06.690Z,12.75
2022-11-10T22:32:26.538Z,12.74
2022-11-10T22:33:46.414Z,12.73
2022-11-10T22:35:06.589Z,12.73
2022-11-10T22:36:26.702Z,12.72
2022-11-10T22:37:46.886Z,12.70
2022-11-10T22:39:07.339Z,12.68
2022-11-10T22:41:05.562Z,12.66
2022-11-10T22:42:43.945Z,12.64
2022-11-10T22:44:04.180Z,12.60
2022-11-10T22:45:24.323Z,12.56
2022-11-10T22:46:48.101Z,12.54
2022-11-10T22:48:26.378Z,12.48
2022-11-10T22:49:46.156Z,12.44
2022-11-10T22:51:06.369Z,12.43
2022-11-10T22:52:26.520Z,12.40
2022-11-10T22:53:46.731Z,12.35
2022-11-10T22:55:07.046Z,12.32
2022-11-10T22:56:27.179Z,12.31
2022-11-10T22:57:46.896Z,12.29
2022-11-10T22:59:06.979Z,12.27
2022-11-10T23:00:27.095Z,12.23
2022-11-10T23:01:47.371Z,12.23
2022-11-10T23:03:07.607Z,12.22
2022-11-10T23:04:27.712Z,12.23
2022-11-10T23:05:56.268Z,12.22
2022-11-10T23:07:16.743Z,12.22
2022-11-10T23:08:37.352Z,12.22
2022-11-10T23:09:57.599Z,12.22
2022-11-10T23:11:19.497Z,12.21
2022-11-10T23:12:39.508Z,12.19
2022-11-10T23:13:59.744Z,12.18
2022-11-10T23:15:20.207Z,12.18
2022-11-10T23:16:40.415Z,12.17
2022-11-10T23:18:06.305Z,12.16
2022-11-10T23:19:26.804Z,12.15
2022-11-10T23:20:46.914Z,12.13
2022-11-10T23:22:06.795Z,12.12
2022-11-10T23:23:27.037Z,12.11
2022-11-10T23:24:46.875Z,12.11
2022-11-10T23:26:08.113Z,12.08
2022-11-10T23:27:28.225Z,12.06
2022-11-10T23:28:48.253Z,12.07
2022-11-10T23:30:08.307Z,12.06
2022-11-10T23:31:28.658Z,12.05
2022-11-10T23:32:48.717Z,12.05
2022-11-10T23:34:08.867Z,12.04
2022-11-10T23:35:28.814Z,12.03
2022-11-10T23:36:48.981Z,12.03
2022-11-10T23:38:09.153Z,12.00
2022-11-10T23:39:29.024Z,11.98
2022-11-10T23:40:49.153Z,11.96
2022-11-10T23:42:09.432Z,11.94
2022-11-10T23:43:29.305Z,11.93
2022-11-10T23:44:49.385Z,11.90
2022-11-10T23:46:09.913Z,11.89
2022-11-10T23:47:29.902Z,11.87
2022-11-10T23:48:49.927Z,11.86
2022-11-10T23:50:10.180Z,11.85
2022-11-10T23:51:30.282Z,11.85
2022-11-10T23:52:50.511Z,11.83
2022-11-10T23:54:10.715Z,11.81
2022-11-10T23:55:30.921Z,11.79
2022-11-10T23:56:51.139Z,11.78
2022-11-10T23:58:10.998Z,11.76
2022-11-10T23:59:30.834Z,11.74
